createdAt,value
2019-04-04T00:01:48.934Z,49.67
2019-04-04T00:04:17.554Z,49.84
2019-04-04T00:06:46.384Z,49.93
2019-04-04T00:09:15.018Z,50.34
2019-04-04T00:11:43.650Z,50.42
2019-04-04T00:14:13.616Z,50.67
2019-04-04T00:16:42.253Z,50.85
2019-04-04T00:19:10.883Z,50.92
2019-04-04T00:21:39.802Z,51.05
2019-04-04T00:24:09.136Z,51.30
2019-04-04T00:26:38.382Z,51.38
2019-04-04T00:29:08.902Z,51.57
2019-04-04T00:31:37.533Z,51.79
2019-04-04T00:34:06.162Z,51.97
2019-04-04T00:36:34.860Z,51.97
2019-04-04T00:39:05.233Z,52.14
2019-04-04T00:41:33.856Z,52.25
2019-04-04T00:44:02.511Z,52.30
2019-04-04T00:46:31.500Z,52.48
2019-04-04T00:49:00.138Z,52.71
2019-04-04T00:51:28.819Z,52.65
2019-04-04T00:53:57.436Z,52.68
2019-04-04T00:56:26.060Z,52.84
2019-04-04T00:58:54.741Z,53.02
2019-04-04T01:01:26.043Z,53.21
2019-04-04T01:03:53.710Z,53.32
2019-04-04T01:06:22.466Z,53.57
2019-04-04T01:08:51.098Z,54.09
2019-04-04T01:11:20.402Z,54.35
2019-04-04T01:13:49.677Z,54.55
2019-04-04T01:16:18.304Z,54.92
2019-04-04T01:18:46.935Z,55.33
2019-04-04T01:21:15.591Z,56.07
2019-04-04T01:23:44.332Z,56.54
2019-04-04T01:26:12.957Z,57.17
2019-04-04T01:28:41.616Z,57.19
2019-04-04T01:31:10.250Z,57.09
2019-04-04T01:33:38.874Z,57.46
2019-04-04T01:36:07.538Z,58.05
2019-04-04T01:38:36.169Z,58.21
2019-04-04T01:41:05.187Z,58.22
2019-04-04T01:43:34.020Z,59.05
2019-04-04T01:46:02.579Z,59.63
2019-04-04T01:48:31.202Z,59.80
2019-04-04T01:50:59.811Z,60.38
2019-04-04T01:53:30.183Z,61.14
2019-04-04T01:55:59.622Z,61.33
2019-04-04T01:58:28.291Z,61.63
2019-04-04T02:00:56.849Z,62.05
2019-04-04T02:03:25.408Z,62.39
2019-04-04T02:05:54.327Z,62.48
2019-04-04T02:08:22.964Z,62.52
2019-04-04T02:10:51.450Z,62.84
2019-04-04T02:13:20.058Z,63.17
2019-04-04T02:15:48.685Z,63.69
2019-04-04T02:18:17.307Z,63.85
2019-04-04T02:20:46.137Z,63.88
2019-04-04T02:23:14.633Z,64.16
2019-04-04T02:25:43.259Z,64.38
2019-04-04T02:28:11.794Z,64.57
2019-04-04T02:30:40.439Z,64.88
2019-04-04T02:33:09.284Z,64.77
2019-04-04T02:35:37.810Z,64.95
2019-04-04T02:38:06.363Z,65.12
2019-04-04T02:40:34.989Z,64.75
2019-04-04T02:43:03.855Z,64.83
2019-04-04T02:45:32.344Z,64.74
2019-04-04T02:48:00.894Z,64.72
2019-04-04T02:50:34.508Z,64.82
2019-04-04T02:52:59.920Z,64.91
2019-04-04T02:55:31.012Z,65.17
2019-04-04T02:57:58.971Z,65.33
2019-04-04T03:00:27.880Z,65.33
2019-04-04T03:02:56.593Z,65.09
2019-04-04T03:05:25.174Z,65.45
2019-04-04T03:07:53.800Z,65.76
2019-04-04T03:10:22.371Z,66.19
2019-04-04T03:12:50.973Z,66.25
2019-04-04T03:15:19.604Z,66.33
2019-04-04T03:17:48.339Z,66.68
2019-04-04T03:20:17.596Z,66.76
2019-04-04T03:22:46.418Z,66.91
2019-04-04T03:25:15.714Z,66.81
2019-04-04T03:27:44.538Z,67.35
2019-04-04T03:30:16.217Z,67.90
2019-04-04T03:32:51.457Z,67.30
2019-04-04T03:35:13.981Z,67.60
2019-04-04T03:37:46.022Z,67.80
2019-04-04T03:40:13.070Z,68.15
2019-04-04T03:42:44.289Z,68.03
2019-04-04T03:45:12.323Z,67.64
2019-04-04T03:47:44.536Z,67.56
2019-04-04T03:50:11.457Z,67.65
2019-04-04T03:52:43.388Z,68.19
2019-04-04T03:55:10.599Z,68.49
2019-04-04T03:57:39.204Z,68.35
2019-04-04T04:00:09.055Z,69.01
2019-04-04T04:02:37.663Z,69.03
2019-04-04T04:05:18.140Z,69.19
2019-04-04T04:07:48.104Z,69.18
2019-04-04T04:10:16.975Z,69.13
2019-04-04T04:12:45.648Z,69.24
2019-04-04T04:15:14.219Z,70.07
2019-04-04T04:17:45.518Z,69.65
2019-04-04T04:20:13.571Z,69.60
2019-04-04T04:22:42.198Z,69.28
2019-04-04T04:25:10.844Z,69.74
2019-04-04T04:27:39.387Z,69.89
2019-04-04T04:30:08.744Z,70.07
2019-04-04T04:32:37.663Z,70.05
2019-04-04T04:35:08.596Z,70.02
2019-04-04T04:37:37.144Z,70.06
2019-04-04T04:40:06.572Z,70.38
2019-04-04T04:42:35.411Z,70.14
2019-04-04T04:45:05.548Z,70.43
2019-04-04T04:47:34.042Z,70.60
2019-04-04T04:50:02.922Z,70.71
2019-04-04T04:52:31.567Z,70.60
2019-04-04T04:55:00.063Z,70.72
2019-04-04T04:57:30.244Z,69.99
2019-04-04T04:59:58.982Z,69.31
2019-04-04T05:02:27.603Z,68.36
2019-04-04T05:04:59.022Z,68.10
2019-04-04T05:07:26.601Z,67.17
2019-04-04T05:09:55.087Z,66.84
2019-04-04T05:12:23.844Z,65.90
2019-04-04T05:14:52.468Z,66.77
2019-04-04T05:17:21.100Z,66.83
2019-04-04T05:19:50.186Z,67.01
2019-04-04T05:22:19.161Z,66.81
2019-04-04T05:25:06.849Z,67.38
2019-04-04T05:27:18.125Z,67.93
2019-04-04T05:29:46.631Z,67.62
2019-04-04T05:32:15.088Z,67.16
2019-04-04T05:34:43.756Z,67.12
2019-04-04T05:37:12.379Z,67.85
2019-04-04T05:39:40.870Z,68.13
2019-04-04T05:42:09.502Z,68.55
2019-04-04T05:44:41.297Z,68.88
2019-04-04T05:47:08.375Z,68.42
2019-04-04T05:49:38.194Z,68.46
2019-04-04T05:52:08.968Z,67.92
2019-04-04T05:54:39.053Z,67.13
2019-04-04T05:57:08.389Z,66.82
2019-04-04T05:59:37.034Z,65.38
2019-04-04T06:02:05.677Z,64.84
2019-04-04T06:04:34.434Z,63.61
2019-04-04T06:07:04.288Z,62.23
2019-04-04T06:09:33.372Z,61.58
2019-04-04T06:12:02.048Z,61.05
2019-04-04T06:14:30.707Z,61.59
2019-04-04T06:16:59.216Z,62.39
2019-04-04T06:19:28.103Z,60.19
2019-04-04T06:21:56.751Z,59.85
2019-04-04T06:24:27.273Z,59.54
2019-04-04T06:26:55.635Z,57.32
2019-04-04T06:29:24.132Z,56.25
2019-04-04T06:31:52.618Z,56.27
2019-04-04T06:34:23.953Z,55.24
2019-04-04T06:36:51.641Z,53.24
2019-04-04T06:39:20.140Z,51.27
2019-04-04T06:41:48.736Z,49.89
2019-04-04T06:44:17.383Z,49.35
2019-04-04T06:46:45.995Z,47.84
2019-04-04T06:49:14.880Z,46.29
2019-04-04T06:51:46.081Z,47.14
2019-04-04T06:54:13.711Z,49.93
2019-04-04T06:56:42.382Z,51.87
2019-04-04T06:59:12.187Z,52.17
2019-04-04T07:01:40.945Z,51.09
2019-04-04T07:04:09.618Z,53.01
2019-04-04T07:06:38.286Z,52.46
2019-04-04T07:09:08.720Z,52.66
2019-04-04T07:11:37.653Z,52.30
2019-04-04T07:14:06.219Z,51.93
2019-04-04T07:16:36.930Z,52.82
2019-04-04T07:19:07.834Z,52.13
2019-04-04T07:21:35.690Z,51.78
2019-04-04T07:24:04.318Z,51.58
2019-04-04T07:26:32.841Z,51.28
2019-04-04T07:29:01.482Z,50.34
2019-04-04T07:31:33.124Z,49.83
2019-04-04T07:34:00.514Z,49.35
2019-04-04T07:36:29.010Z,48.82
2019-04-04T07:39:00.015Z,49.20
2019-04-04T07:41:28.049Z,49.33
2019-04-04T07:43:58.597Z,48.51
2019-04-04T07:46:27.928Z,47.58
2019-04-04T07:48:56.529Z,47.71
2019-04-04T07:51:25.106Z,47.96
2019-04-04T07:53:53.732Z,47.67
2019-04-04T07:56:22.484Z,47.33
2019-04-04T07:58:51.040Z,47.72
2019-04-04T08:01:19.605Z,49.12
2019-04-04T08:04:42.707Z,49.17
2019-04-04T08:07:11.338Z,49.13
2019-04-04T08:09:39.897Z,48.46
2019-04-04T08:12:08.525Z,47.45
2019-04-04T08:14:37.246Z,45.90
2019-04-04T08:17:05.866Z,45.62
2019-04-04T08:19:34.501Z,44.96
2019-04-04T08:22:03.101Z,44.73
2019-04-04T08:24:31.782Z,43.87
2019-04-04T08:27:00.307Z,42.80
2019-04-04T08:29:28.937Z,42.37
2019-04-04T08:31:57.614Z,40.70
2019-04-04T08:34:26.217Z,39.57
2019-04-04T08:36:54.781Z,39.96
2019-04-04T08:42:28.338Z,42.69
2019-04-04T08:44:56.789Z,42.29
2019-04-04T08:47:26.079Z,40.53
2019-04-04T08:49:54.754Z,39.02
2019-04-04T08:52:23.445Z,38.24
2019-04-04T08:54:51.945Z,38.12
2019-04-04T08:57:20.482Z,39.58
2019-04-04T08:59:49.116Z,38.49
2019-04-04T09:02:17.838Z,37.47
2019-04-04T09:04:46.362Z,38.57
2019-04-04T09:07:14.998Z,39.83
2019-04-04T09:09:43.640Z,38.06
2019-04-04T09:12:12.175Z,37.18
2019-04-04T09:14:41.331Z,35.52
2019-04-04T09:17:10.005Z,35.86
2019-04-04T09:19:38.827Z,36.26
2019-04-04T09:22:10.800Z,37.10
2019-04-04T09:24:37.822Z,39.93
2019-04-04T09:27:06.739Z,40.72
2019-04-04T09:29:35.280Z,39.19
2019-04-04T09:32:03.855Z,38.02
2019-04-04T09:34:32.527Z,36.75
2019-04-04T09:37:01.163Z,37.81
2019-04-04T09:39:29.729Z,37.86
2019-04-04T09:41:58.426Z,39.10
2019-04-04T09:44:27.059Z,40.60
2019-04-04T09:47:05.413Z,38.88
2019-04-04T09:49:26.069Z,37.67
2019-04-04T09:51:54.574Z,36.14
2019-04-04T09:54:23.224Z,36.91
2019-04-04T09:56:51.914Z,38.55
2019-04-04T09:59:20.558Z,38.66
2019-04-04T10:01:49.192Z,38.09
2019-04-04T10:04:18.131Z,37.30
2019-04-04T10:06:46.772Z,37.78
2019-04-04T10:09:16.328Z,36.99
2019-04-04T10:11:45.614Z,37.71
2019-04-04T10:14:14.260Z,37.88
2019-04-04T10:16:42.894Z,37.59
2019-04-04T10:19:11.491Z,37.53
2019-04-04T10:21:40.060Z,37.58
2019-04-04T10:24:08.698Z,37.74
2019-04-04T10:26:37.252Z,37.41
2019-04-04T10:29:05.884Z,37.35
2019-04-04T10:31:34.521Z,37.39
2019-04-04T10:34:03.226Z,37.67
2019-04-04T10:36:34.002Z,37.23
2019-04-04T10:39:02.648Z,37.77
2019-04-04T10:41:31.326Z,36.60
2019-04-04T10:43:59.827Z,36.95
2019-04-04T10:46:28.326Z,37.70
2019-04-04T10:48:57.066Z,37.46
2019-04-04T10:51:25.703Z,37.02
2019-04-04T10:53:54.193Z,36.96
2019-04-04T10:56:22.869Z,36.83
2019-04-04T10:58:51.515Z,36.88
2019-04-04T11:01:20.162Z,37.29
2019-04-04T11:03:48.764Z,36.88
2019-04-04T11:06:17.427Z,35.99
2019-04-04T11:08:45.904Z,35.24
2019-04-04T11:11:14.786Z,35.09
2019-04-04T11:13:43.423Z,34.67
2019-04-04T11:16:12.051Z,34.61
2019-04-04T11:18:40.578Z,34.77
2019-04-04T11:21:09.132Z,34.49
2019-04-04T11:23:37.768Z,34.85
2019-04-04T11:26:06.453Z,35.10
2019-04-04T11:28:35.027Z,34.49
2019-04-04T11:31:03.763Z,34.18
2019-04-04T11:33:32.446Z,35.72
2019-04-04T11:36:01.079Z,36.66
2019-04-04T11:38:29.578Z,35.52
2019-04-04T11:40:58.139Z,36.14
2019-04-04T11:43:26.770Z,36.30
2019-04-04T11:45:55.324Z,36.81
2019-04-04T11:48:23.996Z,36.90
2019-04-04T11:50:52.630Z,37.54
2019-04-04T11:53:21.121Z,37.93
2019-04-04T11:55:49.897Z,38.02
2019-04-04T11:58:18.535Z,39.10
2019-04-04T12:00:54.882Z,39.11
2019-04-04T12:03:23.381Z,39.23
2019-04-04T12:05:51.871Z,39.18
2019-04-04T12:08:20.532Z,39.18
2019-04-04T12:10:49.170Z,39.20
2019-04-04T12:13:17.668Z,39.23
2019-04-04T12:15:46.271Z,39.20
2019-04-04T12:18:14.900Z,39.31
2019-04-04T12:20:43.660Z,38.85
2019-04-04T12:23:12.384Z,39.10
2019-04-04T12:25:41.015Z,39.14
2019-04-04T12:28:09.585Z,38.67
2019-04-04T12:30:38.190Z,38.30
2019-04-04T12:33:06.820Z,38.87
2019-04-04T12:35:35.450Z,38.85
2019-04-04T12:38:04.065Z,39.06
2019-04-04T12:40:32.567Z,39.16
2019-04-04T12:43:01.202Z,39.40
2019-04-04T12:45:29.877Z,39.69
2019-04-04T12:47:58.389Z,39.56
2019-04-04T12:50:26.976Z,39.85
2019-04-04T12:52:55.643Z,39.95
2019-04-04T12:55:24.277Z,39.79
2019-04-04T12:57:52.842Z,39.71
2019-04-04T13:00:21.638Z,41.45
2019-04-04T13:02:50.274Z,43.59
2019-04-04T13:05:18.905Z,43.52
2019-04-04T13:07:47.590Z,43.09
2019-04-04T13:10:16.481Z,42.58
2019-04-04T13:12:44.974Z,44.37
2019-04-04T13:15:15.195Z,40.78
2019-04-04T13:17:43.827Z,41.16
2019-04-04T13:20:12.760Z,41.08
2019-04-04T13:22:41.291Z,44.29
2019-04-04T13:25:10.328Z,47.48
2019-04-04T13:27:38.978Z,48.09
2019-04-04T13:30:10.349Z,48.19
2019-04-04T13:32:39.192Z,46.12
2019-04-04T13:35:08.043Z,50.98
2019-04-04T13:37:36.707Z,46.27
2019-04-04T13:40:06.931Z,48.98
2019-04-04T13:42:35.551Z,47.69
2019-04-04T13:45:05.969Z,44.25
2019-04-04T13:47:38.219Z,45.56
2019-04-04T13:50:07.110Z,44.28
2019-04-04T13:52:35.814Z,42.12
2019-04-04T13:55:06.024Z,41.07
2019-04-04T13:57:34.774Z,38.92
2019-04-04T14:00:05.241Z,39.27
2019-04-04T14:02:33.875Z,38.18
2019-04-04T14:05:09.693Z,37.06
2019-04-04T14:07:32.841Z,36.79
2019-04-04T14:10:01.346Z,36.38
2019-04-04T14:12:30.064Z,35.43
2019-04-04T14:14:58.822Z,36.01
2019-04-04T14:17:27.340Z,34.96
2019-04-04T14:19:55.890Z,34.59
2019-04-04T14:22:24.527Z,34.30
2019-04-04T14:24:53.017Z,34.71
2019-04-04T14:27:21.656Z,34.32
2019-04-04T14:29:50.281Z,34.00
2019-04-04T14:32:21.136Z,34.14
2019-04-04T14:34:49.222Z,33.94
2019-04-04T14:37:17.882Z,34.09
2019-04-04T14:39:46.587Z,34.15
2019-04-04T14:42:15.223Z,34.93
2019-04-04T14:44:43.791Z,35.41
2019-04-04T14:47:13.927Z,35.18
2019-04-04T14:49:44.996Z,35.46
2019-04-04T14:52:13.136Z,35.44
2019-04-04T14:54:41.658Z,35.35
2019-04-04T14:57:10.296Z,35.64
2019-04-04T14:59:38.938Z,35.58
2019-04-04T15:02:07.743Z,35.99
2019-04-04T15:04:36.316Z,36.50
2019-04-04T15:07:04.980Z,36.77
2019-04-04T15:09:33.893Z,36.90
2019-04-04T15:12:02.394Z,36.89
2019-04-04T15:14:30.884Z,37.09
2019-04-04T15:16:59.751Z,36.94
2019-04-04T15:19:28.394Z,36.99
2019-04-04T15:21:56.886Z,37.17
2019-04-04T15:24:26.071Z,37.15
2019-04-04T15:26:54.701Z,37.21
2019-04-04T15:29:23.482Z,37.25
2019-04-04T15:31:52.057Z,37.25
2019-04-04T15:34:20.664Z,37.73
2019-04-04T15:36:49.317Z,38.11
2019-04-04T15:39:17.948Z,38.63
2019-04-04T15:41:46.728Z,38.94
2019-04-04T15:44:15.383Z,39.39
2019-04-04T15:46:43.989Z,39.71
2019-04-04T15:49:12.591Z,39.96
2019-04-04T15:51:41.223Z,40.42
2019-04-04T15:54:09.857Z,40.89
2019-04-04T15:56:38.450Z,41.13
2019-04-04T15:59:07.668Z,41.56
2019-04-04T16:01:36.439Z,41.52
2019-04-04T16:04:05.123Z,41.84
2019-04-04T16:06:33.682Z,41.88
2019-04-04T16:09:02.257Z,42.12
2019-04-04T16:11:30.935Z,42.31
2019-04-04T16:13:59.597Z,42.46
2019-04-04T16:16:28.099Z,42.55
2019-04-04T16:18:56.696Z,42.66
2019-04-04T16:21:25.339Z,42.74
2019-04-04T16:23:53.843Z,43.13
2019-04-04T16:26:22.528Z,43.16
2019-04-04T16:28:51.169Z,43.28
2019-04-04T16:31:19.739Z,43.41
2019-04-04T16:33:48.499Z,43.51
2019-04-04T16:36:17.130Z,43.75
2019-04-04T16:38:45.766Z,43.87
2019-04-04T16:41:14.688Z,44.04
2019-04-04T16:43:43.830Z,44.35
2019-04-04T16:46:12.469Z,44.68
2019-04-04T16:48:44.105Z,44.87
2019-04-04T16:51:12.676Z,45.09
2019-04-04T16:53:41.321Z,45.32
2019-04-04T16:56:09.999Z,45.62
2019-04-04T16:58:38.637Z,45.85
2019-04-04T17:01:07.198Z,46.28
2019-04-04T17:03:35.885Z,46.45
2019-04-04T17:06:04.622Z,46.51
2019-04-04T17:08:33.120Z,46.71
2019-04-04T17:11:01.792Z,46.98
2019-04-04T17:13:30.438Z,47.29
2019-04-04T17:15:59.185Z,47.69
2019-04-04T17:18:27.927Z,47.90
2019-04-04T17:20:56.564Z,48.12
2019-04-04T17:23:25.196Z,48.64
2019-04-04T17:25:53.694Z,48.89
2019-04-04T17:28:22.547Z,49.22
2019-04-04T17:30:51.911Z,49.33
2019-04-04T17:33:20.835Z,49.55
2019-04-04T17:35:49.712Z,49.61
2019-04-04T17:38:18.412Z,50.03
2019-04-04T17:40:47.041Z,50.18
2019-04-04T17:43:16.052Z,50.38
2019-04-04T17:45:44.978Z,50.31
2019-04-04T17:48:14.110Z,50.67
2019-04-04T17:50:42.664Z,50.86
2019-04-04T17:53:11.280Z,50.85
2019-04-04T17:55:40.169Z,50.94
2019-04-04T17:58:09.295Z,50.89
2019-04-04T18:00:37.930Z,50.83
2019-04-04T18:03:06.569Z,50.83
2019-04-04T18:05:35.230Z,50.83
2019-04-04T18:08:03.951Z,50.97
2019-04-04T18:10:32.522Z,50.78
2019-04-04T18:13:01.058Z,50.68
2019-04-04T18:15:29.787Z,50.99
2019-04-04T18:17:58.415Z,51.00
2019-04-04T18:20:27.017Z,51.06
2019-04-04T18:22:55.645Z,51.05
2019-04-04T18:25:24.276Z,51.27
2019-04-04T18:27:52.822Z,51.43
2019-04-04T18:30:21.553Z,51.73
2019-04-04T18:32:50.183Z,51.72
2019-04-04T18:35:18.783Z,51.67
2019-04-04T18:37:47.362Z,51.91
2019-04-04T18:40:16.277Z,52.06
2019-04-04T18:42:53.170Z,52.35
2019-04-04T18:45:15.410Z,52.35
2019-04-04T18:47:43.914Z,52.37
2019-04-04T18:50:14.123Z,52.63
2019-04-04T18:52:42.765Z,52.28
2019-04-04T18:55:19.631Z,52.30
2019-04-04T18:57:41.818Z,52.46
2019-04-04T19:00:12.147Z,52.61
2019-04-04T19:02:41.422Z,52.69
2019-04-04T19:05:11.050Z,52.91
2019-04-04T19:07:40.091Z,52.88
2019-04-04T19:10:09.343Z,53.08
2019-04-04T19:12:38.050Z,53.15
2019-04-04T19:15:07.876Z,53.28
2019-04-04T19:17:37.041Z,53.41
2019-04-04T19:20:10.126Z,53.79
2019-04-04T19:22:39.086Z,53.90
2019-04-04T19:25:08.516Z,54.15
2019-04-04T19:27:37.354Z,54.33
2019-04-04T19:30:11.133Z,54.43
2019-04-04T19:32:39.729Z,54.38
2019-04-04T19:35:09.366Z,54.57
2019-04-04T19:37:38.011Z,54.72
2019-04-04T19:40:08.650Z,54.69
2019-04-04T19:42:37.282Z,54.94
2019-04-04T19:45:10.519Z,55.12
2019-04-04T19:47:39.116Z,55.33
2019-04-04T19:50:10.615Z,55.58
2019-04-04T19:52:39.621Z,55.71
2019-04-04T19:55:08.384Z,55.83
2019-04-04T19:57:37.049Z,55.99
2019-04-04T20:00:08.216Z,56.20
2019-04-04T20:02:36.848Z,56.32
2019-04-04T20:05:06.569Z,56.40
2019-04-04T20:07:35.099Z,56.47
2019-04-04T20:10:05.504Z,56.64
2019-04-04T20:12:34.123Z,56.70
2019-04-04T20:15:02.707Z,56.81
2019-04-04T20:17:31.338Z,57.03
2019-04-04T20:19:59.966Z,57.15
2019-04-04T20:22:28.778Z,57.33
2019-04-04T20:24:57.668Z,57.45
2019-04-04T20:27:26.278Z,57.49
2019-04-04T20:29:54.949Z,57.69
2019-04-04T20:32:23.647Z,57.71
2019-04-04T20:34:52.137Z,57.72
2019-04-04T20:37:20.717Z,57.88
2019-04-04T20:39:49.350Z,57.72
2019-04-04T20:42:18.343Z,57.96
2019-04-04T20:44:46.834Z,57.97
2019-04-04T20:47:15.490Z,58.03
2019-04-04T20:49:44.087Z,58.47
2019-04-04T20:52:12.756Z,58.66
2019-04-04T20:54:41.355Z,58.64
2019-04-04T20:57:09.876Z,58.87
2019-04-04T20:59:38.499Z,58.91
2019-04-04T21:02:06.987Z,58.82
2019-04-04T21:04:35.653Z,59.11
2019-04-04T21:07:04.288Z,59.01
2019-04-04T21:09:32.775Z,59.27
2019-04-04T21:12:01.463Z,59.33
2019-04-04T21:14:30.073Z,59.42
2019-04-04T21:16:58.739Z,59.43
2019-04-04T21:19:27.220Z,59.40
2019-04-04T21:21:55.721Z,59.29
2019-04-04T21:24:24.379Z,59.45
2019-04-04T21:26:53.030Z,59.50
2019-04-04T21:29:21.524Z,59.54
2019-04-04T21:31:50.059Z,59.56
2019-04-04T21:34:18.684Z,59.45
2019-04-04T21:36:47.316Z,59.58
2019-04-04T21:39:15.847Z,59.55
2019-04-04T21:41:44.483Z,59.61
2019-04-04T21:44:12.969Z,59.80
2019-04-04T21:46:41.791Z,60.03
2019-04-04T21:49:10.421Z,60.18
2019-04-04T21:51:39.040Z,60.55
2019-04-04T21:54:07.576Z,60.63
2019-04-04T21:56:36.136Z,60.69
2019-04-04T21:59:04.763Z,60.73
2019-04-04T22:01:33.554Z,60.93
2019-04-04T22:04:02.249Z,60.88
2019-04-04T22:06:30.876Z,61.03
2019-04-04T22:08:59.549Z,61.05
2019-04-04T22:11:28.188Z,61.03
2019-04-04T22:13:56.671Z,61.21
2019-04-04T22:16:25.266Z,61.45
2019-04-04T22:18:53.947Z,61.47
2019-04-04T22:21:22.441Z,61.66
2019-04-04T22:23:51.097Z,61.78
2019-04-04T22:26:19.723Z,62.00
2019-04-04T22:28:48.210Z,61.99
2019-04-04T22:31:17.101Z,62.02
2019-04-04T22:33:45.727Z,62.16
2019-04-04T22:36:14.347Z,62.22
2019-04-04T22:38:42.865Z,62.41
2019-04-04T22:41:11.353Z,62.50
2019-04-04T22:43:39.995Z,62.37
2019-04-04T22:46:08.669Z,62.22
2019-04-04T22:48:37.161Z,62.14
2019-04-04T22:51:05.712Z,62.20
2019-04-04T22:53:34.384Z,62.13
2019-04-04T22:56:03.008Z,62.23
2019-04-04T22:58:31.496Z,62.17
2019-04-04T23:01:00.162Z,62.21
2019-04-04T23:03:29.624Z,62.40
2019-04-04T23:05:58.249Z,62.48
2019-04-04T23:08:26.912Z,62.56
2019-04-04T23:10:55.537Z,62.65
2019-04-04T23:13:24.028Z,62.87
2019-04-04T23:15:52.546Z,62.97
2019-04-04T23:18:21.172Z,62.97
2019-04-04T23:20:49.797Z,63.13
2019-04-04T23:23:18.325Z,63.38
2019-04-04T23:25:46.817Z,63.48
2019-04-04T23:28:15.445Z,63.59
2019-04-04T23:30:44.124Z,63.69
2019-04-04T23:33:12.693Z,64.04
2019-04-04T23:35:41.519Z,64.65
2019-04-04T23:38:10.337Z,64.91
2019-04-04T23:40:38.824Z,65.26
2019-04-04T23:43:07.446Z,65.36
2019-04-04T23:45:36.106Z,65.44
2019-04-04T23:48:04.659Z,65.49
2019-04-04T23:50:33.162Z,65.82
2019-04-04T23:53:01.833Z,66.14
2019-04-04T23:55:30.590Z,66.38
2019-04-04T23:57:59.024Z,66.82
